createdAt,value
2017-02-14T00:00:03.251Z,25.97
2017-02-14T00:00:17.846Z,25.97
2017-02-14T00:00:32.415Z,25.99
2017-02-14T00:00:46.985Z,26
2017-02-14T00:01:01.572Z,25.94
2017-02-14T00:01:16.388Z,25.96
2017-02-14T00:01:30.963Z,26.01
2017-02-14T00:01:45.543Z,25.96
2017-02-14T00:02:00.109Z,25.93
2017-02-14T00:02:14.736Z,25.91
2017-02-14T00:02:29.313Z,25.96
2017-02-14T00:02:43.921Z,25.93
2017-02-14T00:02:58.521Z,25.93
2017-02-14T00:03:13.075Z,25.97
2017-02-14T00:03:27.701Z,25.96
2017-02-14T00:03:42.362Z,26.01
2017-02-14T00:03:56.990Z,25.89
2017-02-14T00:04:11.610Z,25.93
2017-02-14T00:04:26.417Z,25.91
2017-02-14T00:04:40.919Z,25.97
2017-02-14T00:04:55.501Z,26
2017-02-14T00:05:10.119Z,25.93
2017-02-14T00:05:24.701Z,25.96
2017-02-14T00:05:39.285Z,26
2017-02-14T00:05:53.955Z,26.03
2017-02-14T00:06:08.634Z,25.99
2017-02-14T00:06:23.222Z,25.94
2017-02-14T00:06:37.826Z,26.03
2017-02-14T00:06:52.336Z,25.93
2017-02-14T00:07:07.138Z,25.97
2017-02-14T00:07:21.711Z,25.91
2017-02-14T00:07:36.310Z,25.97
2017-02-14T00:07:51.019Z,25.91
2017-02-14T00:08:05.608Z,25.99
2017-02-14T00:08:20.398Z,25.94
2017-02-14T00:08:35.286Z,25.91
2017-02-14T00:08:49.890Z,25.93
2017-02-14T00:09:04.470Z,25.96
2017-02-14T00:09:18.993Z,25.96
2017-02-14T00:09:33.576Z,25.97
2017-02-14T00:09:48.102Z,25.97
2017-02-14T00:10:02.722Z,25.99
2017-02-14T00:10:17.311Z,25.99
2017-02-14T00:10:31.888Z,26.01
2017-02-14T00:10:46.550Z,25.91
2017-02-14T00:11:01.143Z,25.88
2017-02-14T00:11:15.923Z,25.88
2017-02-14T00:11:30.470Z,25.89
2017-02-14T00:11:45.017Z,25.86
2017-02-14T00:11:59.662Z,25.91
2017-02-14T00:12:14.256Z,25.82
2017-02-14T00:12:28.858Z,25.91
2017-02-14T00:12:43.433Z,25.91
2017-02-14T00:12:57.936Z,25.89
2017-02-14T00:13:12.487Z,25.93
2017-02-14T00:13:27.058Z,25.81
2017-02-14T00:13:41.655Z,25.93
2017-02-14T00:13:56.290Z,25.91
2017-02-14T00:14:10.936Z,25.93
2017-02-14T00:14:25.565Z,25.91
2017-02-14T00:14:40.167Z,25.74
2017-02-14T00:14:54.788Z,25.91
2017-02-14T00:15:09.369Z,25.76
2017-02-14T00:15:23.947Z,25.94
2017-02-14T00:15:38.627Z,25.94
2017-02-14T00:15:53.188Z,25.94
2017-02-14T00:16:07.736Z,25.93
2017-02-14T00:16:22.331Z,25.88
2017-02-14T00:16:36.917Z,25.93
2017-02-14T00:16:51.552Z,25.79
2017-02-14T00:17:06.097Z,25.93
2017-02-14T00:17:20.658Z,25.93
2017-02-14T00:17:35.332Z,25.88
2017-02-14T00:17:49.912Z,25.93
2017-02-14T00:18:04.546Z,25.82
2017-02-14T00:18:19.142Z,25.85
2017-02-14T00:18:33.748Z,25.85
2017-02-14T00:18:48.335Z,25.93
2017-02-14T00:19:02.941Z,25.76
2017-02-14T00:19:17.555Z,25.81
2017-02-14T00:19:32.074Z,25.75
2017-02-14T00:19:46.699Z,25.76
2017-02-14T00:20:01.312Z,25.85
2017-02-14T00:20:15.916Z,25.78
2017-02-14T00:20:30.488Z,25.67
2017-02-14T00:20:45.043Z,25.76
2017-02-14T00:20:59.634Z,25.67
2017-02-14T00:21:14.224Z,25.81
2017-02-14T00:21:28.866Z,25.7
2017-02-14T00:21:43.464Z,25.76
2017-02-14T00:21:58.030Z,25.79
2017-02-14T00:22:12.637Z,25.75
2017-02-14T00:22:27.149Z,25.79
2017-02-14T00:22:41.721Z,25.74
2017-02-14T00:22:56.359Z,25.74
2017-02-14T00:23:10.932Z,25.69
2017-02-14T00:23:25.460Z,25.69
2017-02-14T00:23:40.062Z,25.75
2017-02-14T00:23:54.834Z,25.75
2017-02-14T00:24:09.425Z,25.74
2017-02-14T00:24:24.022Z,25.71
2017-02-14T00:24:38.562Z,25.7
2017-02-14T00:24:53.086Z,25.74
2017-02-14T00:25:07.608Z,25.74
2017-02-14T00:25:22.151Z,25.7
2017-02-14T00:25:36.729Z,25.69
2017-02-14T00:25:51.332Z,25.69
2017-02-14T00:26:06.404Z,25.75
2017-02-14T00:26:20.969Z,25.79
2017-02-14T00:26:35.581Z,25.76
2017-02-14T00:26:50.150Z,25.71
2017-02-14T00:27:04.717Z,25.75
2017-02-14T00:27:19.269Z,25.7
2017-02-14T00:27:33.855Z,25.76
2017-02-14T00:27:48.415Z,25.71
2017-02-14T00:28:03.036Z,25.71
2017-02-14T00:28:17.603Z,25.74
2017-02-14T00:28:32.179Z,25.74
2017-02-14T00:28:46.813Z,25.75
2017-02-14T00:29:01.388Z,25.75
2017-02-14T00:29:16.153Z,25.69
2017-02-14T00:29:30.972Z,25.66
2017-02-14T00:29:45.550Z,25.75
2017-02-14T00:30:00.102Z,25.62
2017-02-14T00:30:14.651Z,25.67
2017-02-14T00:30:29.268Z,25.62
2017-02-14T00:30:43.857Z,25.74
2017-02-14T00:30:58.446Z,25.69
2017-02-14T00:31:13.012Z,25.69
2017-02-14T00:31:27.609Z,25.75
2017-02-14T00:31:42.175Z,25.69
2017-02-14T00:31:56.761Z,25.71
2017-02-14T00:32:11.343Z,25.71
2017-02-14T00:32:25.937Z,25.7
2017-02-14T00:32:40.560Z,25.74
2017-02-14T00:32:55.399Z,25.67
2017-02-14T00:33:09.978Z,25.66
2017-02-14T00:33:24.554Z,25.75
2017-02-14T00:33:39.170Z,25.75
2017-02-14T00:33:53.825Z,25.66
2017-02-14T00:34:08.400Z,25.66
2017-02-14T00:34:23.065Z,25.64
2017-02-14T00:34:37.717Z,25.63
2017-02-14T00:34:52.362Z,25.66
2017-02-14T00:35:06.953Z,25.64
2017-02-14T00:35:21.567Z,25.66
2017-02-14T00:35:36.158Z,25.69
2017-02-14T00:35:50.787Z,25.67
2017-02-14T00:36:05.347Z,25.67
2017-02-14T00:36:19.972Z,25.63
2017-02-14T00:36:34.545Z,25.64
2017-02-14T00:36:49.097Z,25.66
2017-02-14T00:37:03.645Z,25.66
2017-02-14T00:37:18.262Z,25.63
2017-02-14T00:37:32.920Z,25.62
2017-02-14T00:37:47.517Z,25.62
2017-02-14T00:38:02.114Z,25.57
2017-02-14T00:38:16.751Z,25.59
2017-02-14T00:38:31.520Z,25.54
2017-02-14T00:38:46.142Z,25.57
2017-02-14T00:39:00.967Z,25.56
2017-02-14T00:39:15.571Z,25.49
2017-02-14T00:39:30.176Z,25.51
2017-02-14T00:39:44.801Z,25.57
2017-02-14T00:39:59.350Z,25.54
2017-02-14T00:40:13.863Z,25.57
2017-02-14T00:40:28.427Z,25.6
2017-02-14T00:40:43.105Z,25.6
2017-02-14T00:40:57.762Z,25.66
2017-02-14T00:41:12.389Z,25.71
2017-02-14T00:41:26.972Z,25.71
2017-02-14T00:41:41.590Z,25.67
2017-02-14T00:41:56.164Z,25.66
2017-02-14T00:42:10.774Z,25.71
2017-02-14T00:42:25.355Z,25.85
2017-02-14T00:42:39.932Z,25.76
2017-02-14T00:42:54.520Z,25.78
2017-02-14T00:43:09.085Z,25.84
2017-02-14T00:43:23.701Z,25.88
2017-02-14T00:43:38.306Z,25.93
2017-02-14T00:43:52.840Z,25.94
2017-02-14T00:44:07.390Z,25.88
2017-02-14T00:44:21.945Z,25.84
2017-02-14T00:44:36.522Z,25.91
2017-02-14T00:44:51.124Z,25.96
2017-02-14T00:45:05.708Z,25.97
2017-02-14T00:45:20.345Z,25.96
2017-02-14T00:45:34.948Z,25.91
2017-02-14T00:45:49.528Z,25.89
2017-02-14T00:46:04.285Z,25.88
2017-02-14T00:46:18.884Z,25.93
2017-02-14T00:46:33.496Z,25.88
2017-02-14T00:46:48.107Z,25.88
2017-02-14T00:47:02.765Z,25.89
2017-02-14T00:47:17.505Z,25.91
2017-02-14T00:47:32.017Z,25.88
2017-02-14T00:47:46.620Z,25.88
2017-02-14T00:48:01.240Z,25.89
2017-02-14T00:48:15.799Z,25.96
2017-02-14T00:48:30.374Z,25.88
2017-02-14T00:48:44.939Z,25.94
2017-02-14T00:48:59.530Z,25.96
2017-02-14T00:49:14.151Z,25.94
2017-02-14T00:49:28.718Z,26
2017-02-14T00:49:43.305Z,26.01
2017-02-14T00:49:57.939Z,26.03
2017-02-14T00:50:12.549Z,25.97
2017-02-14T00:50:27.149Z,26.03
2017-02-14T00:50:41.761Z,26.04
2017-02-14T00:50:56.360Z,25.97
2017-02-14T00:51:10.941Z,25.99
2017-02-14T00:51:25.507Z,26.03
2017-02-14T00:51:40.089Z,25.99
2017-02-14T00:51:54.613Z,25.99
2017-02-14T00:52:09.184Z,25.91
2017-02-14T00:52:24.013Z,25.94
2017-02-14T00:52:38.623Z,26.04
2017-02-14T00:52:53.271Z,25.96
2017-02-14T00:53:07.852Z,26.04
2017-02-14T00:53:22.478Z,26.03
2017-02-14T00:53:37.198Z,25.93
2017-02-14T00:53:51.756Z,26
2017-02-14T00:54:06.553Z,26
2017-02-14T00:54:21.149Z,25.91
2017-02-14T00:54:35.722Z,26.01
2017-02-14T00:54:50.324Z,25.94
2017-02-14T00:55:04.910Z,25.97
2017-02-14T00:55:19.472Z,25.93
2017-02-14T00:55:34.025Z,25.89
2017-02-14T00:55:48.586Z,25.91
2017-02-14T00:56:03.163Z,25.96
2017-02-14T00:56:17.672Z,25.88
2017-02-14T00:56:32.259Z,25.89
2017-02-14T00:56:46.867Z,25.91
2017-02-14T00:57:01.488Z,25.88
2017-02-14T00:57:16.071Z,25.93
2017-02-14T00:57:30.656Z,25.91
2017-02-14T00:57:45.210Z,25.91
2017-02-14T00:57:59.985Z,25.91
2017-02-14T00:58:14.556Z,25.99
2017-02-14T00:58:29.087Z,25.96
2017-02-14T00:58:43.666Z,25.94
2017-02-14T00:58:58.295Z,25.99
2017-02-14T00:59:13.051Z,25.97
2017-02-14T00:59:27.583Z,25.99
2017-02-14T00:59:42.137Z,25.99
2017-02-14T00:59:56.788Z,25.96
2017-02-14T01:00:11.350Z,25.93
2017-02-14T01:00:25.919Z,25.91
2017-02-14T01:00:40.504Z,25.81
2017-02-14T01:00:55.119Z,25.93
2017-02-14T01:01:09.753Z,25.93
2017-02-14T01:01:24.323Z,25.93
2017-02-14T01:01:38.914Z,25.82
2017-02-14T01:01:53.569Z,25.91
2017-02-14T01:02:08.148Z,25.91
2017-02-14T01:02:22.751Z,25.93
2017-02-14T01:02:37.558Z,25.88
2017-02-14T01:02:52.169Z,25.91
2017-02-14T01:03:06.720Z,25.97
2017-02-14T01:03:21.282Z,25.88
2017-02-14T01:03:35.893Z,25.82
2017-02-14T01:03:50.462Z,25.86
2017-02-14T01:04:05.091Z,25.86
2017-02-14T01:04:19.690Z,25.91
2017-02-14T01:04:34.273Z,25.89
2017-02-14T01:04:48.872Z,25.94
2017-02-14T01:05:03.434Z,25.91
2017-02-14T01:05:17.963Z,25.89
2017-02-14T01:05:32.587Z,25.94
2017-02-14T01:05:47.221Z,26.01
2017-02-14T01:06:01.797Z,25.97
2017-02-14T01:06:16.397Z,26
2017-02-14T01:06:30.939Z,26
2017-02-14T01:06:45.505Z,26
2017-02-14T01:07:00.052Z,25.97
2017-02-14T01:07:14.636Z,26.03
2017-02-14T01:07:29.260Z,25.99
2017-02-14T01:07:43.948Z,25.99
2017-02-14T01:07:58.503Z,25.97
2017-02-14T01:08:13.136Z,25.94
2017-02-14T01:08:27.762Z,25.97
2017-02-14T01:08:42.393Z,25.93
2017-02-14T01:08:56.979Z,25.91
2017-02-14T01:09:11.759Z,25.94
2017-02-14T01:09:26.304Z,25.97
2017-02-14T01:09:40.876Z,25.97
2017-02-14T01:09:55.507Z,26.01
2017-02-14T01:10:10.125Z,25.99
2017-02-14T01:10:24.750Z,25.99
2017-02-14T01:10:39.484Z,25.94
2017-02-14T01:10:54.112Z,26.03
2017-02-14T01:11:08.681Z,26.07
2017-02-14T01:11:23.243Z,26
2017-02-14T01:11:38.065Z,26
2017-02-14T01:11:52.655Z,26.01
2017-02-14T01:12:07.235Z,26
2017-02-14T01:12:21.877Z,26
2017-02-14T01:12:36.631Z,25.97
2017-02-14T01:12:51.207Z,26.01
2017-02-14T01:13:05.787Z,26.03
2017-02-14T01:13:20.329Z,25.96
2017-02-14T01:13:34.907Z,26
2017-02-14T01:13:49.442Z,26.03
2017-02-14T01:14:03.977Z,26.04
2017-02-14T01:14:18.551Z,26.15
2017-02-14T01:14:33.100Z,26.12
2017-02-14T01:14:47.719Z,26.15
2017-02-14T01:15:02.302Z,26.15
2017-02-14T01:15:16.892Z,26.17
2017-02-14T01:15:31.459Z,26.15
2017-02-14T01:15:46.066Z,26.27
2017-02-14T01:16:00.832Z,26.2
2017-02-14T01:16:15.604Z,26.2
2017-02-14T01:16:30.147Z,26.17
2017-02-14T01:16:44.704Z,26.16
2017-02-14T01:16:59.295Z,26.35
2017-02-14T01:17:13.862Z,26.32
2017-02-14T01:17:28.645Z,26.34
2017-02-14T01:17:43.216Z,26.31
2017-02-14T01:17:57.804Z,26.27
2017-02-14T01:18:12.411Z,26.3
2017-02-14T01:18:27.008Z,26.37
2017-02-14T01:18:41.620Z,26.37
2017-02-14T01:18:56.451Z,26.32
2017-02-14T01:19:11.034Z,26.26
2017-02-14T01:19:25.683Z,26.2
2017-02-14T01:19:40.265Z,26.17
2017-02-14T01:19:54.833Z,26.22
2017-02-14T01:20:09.632Z,26.23
2017-02-14T01:20:24.291Z,26.17
2017-02-14T01:20:39.110Z,26.15
2017-02-14T01:20:53.723Z,26.09
2017-02-14T01:21:08.318Z,26
2017-02-14T01:21:22.888Z,26.06
2017-02-14T01:21:37.505Z,25.94
2017-02-14T01:21:52.123Z,25.99
2017-02-14T01:22:06.748Z,25.89
2017-02-14T01:22:21.357Z,25.88
2017-02-14T01:22:35.893Z,25.96
2017-02-14T01:22:50.480Z,25.89
2017-02-14T01:23:05.045Z,25.94
2017-02-14T01:23:19.571Z,25.97
2017-02-14T01:23:34.085Z,25.89
2017-02-14T01:23:48.723Z,25.99
2017-02-14T01:24:03.241Z,25.93
2017-02-14T01:24:17.793Z,25.94
2017-02-14T01:24:32.695Z,25.97
2017-02-14T01:24:47.287Z,25.97
2017-02-14T01:25:01.842Z,25.93
2017-02-14T01:25:16.415Z,25.91
2017-02-14T01:25:31.016Z,25.96
2017-02-14T01:25:45.620Z,25.97
2017-02-14T01:26:00.227Z,26.04
2017-02-14T01:26:14.787Z,26.04
2017-02-14T01:26:29.372Z,26.03
2017-02-14T01:26:43.963Z,26.07
2017-02-14T01:26:58.580Z,26.06
2017-02-14T01:27:13.175Z,26.03
2017-02-14T01:27:27.763Z,25.99
2017-02-14T01:27:42.358Z,25.99
2017-02-14T01:27:56.988Z,26.01
2017-02-14T01:28:11.640Z,26
2017-02-14T01:28:26.223Z,25.99
2017-02-14T01:28:40.801Z,26.01
2017-02-14T01:28:55.384Z,25.97
2017-02-14T01:29:09.986Z,26.04
2017-02-14T01:29:24.553Z,26.07
2017-02-14T01:29:39.117Z,25.93
2017-02-14T01:29:53.675Z,26.06
2017-02-14T01:30:08.225Z,25.99
2017-02-14T01:30:22.795Z,25.99
2017-02-14T01:30:37.347Z,25.96
2017-02-14T01:30:51.926Z,25.99
2017-02-14T01:31:06.490Z,25.93
2017-02-14T01:31:21.045Z,26
2017-02-14T01:31:35.684Z,25.88
2017-02-14T01:31:50.225Z,25.94
2017-02-14T01:32:04.822Z,25.96
2017-02-14T01:32:19.421Z,25.88
2017-02-14T01:32:34.013Z,25.99
2017-02-14T01:32:48.571Z,25.93
2017-02-14T01:33:03.106Z,25.97
2017-02-14T01:33:17.720Z,26
2017-02-14T01:33:32.298Z,25.96
2017-02-14T01:33:46.879Z,25.96
2017-02-14T01:34:01.427Z,26.01
2017-02-14T01:34:15.959Z,26.03
2017-02-14T01:34:30.556Z,25.94
2017-02-14T01:34:45.139Z,25.94
2017-02-14T01:34:59.686Z,26
2017-02-14T01:35:14.244Z,25.91
2017-02-14T01:35:28.864Z,25.88
2017-02-14T01:35:43.452Z,25.91
2017-02-14T01:35:58.017Z,25.91
2017-02-14T01:36:12.611Z,25.94
2017-02-14T01:36:27.188Z,25.91
2017-02-14T01:36:41.704Z,25.88
2017-02-14T01:36:56.241Z,25.93
2017-02-14T01:37:10.839Z,25.91
2017-02-14T01:37:25.440Z,25.93
2017-02-14T01:37:40.053Z,25.91
2017-02-14T01:37:54.563Z,25.99
2017-02-14T01:38:09.087Z,25.97
2017-02-14T01:38:23.660Z,26
2017-02-14T01:38:38.233Z,25.99
2017-02-14T01:38:52.829Z,26.01
2017-02-14T01:39:07.429Z,25.99
2017-02-14T01:39:22.027Z,25.99
2017-02-14T01:39:36.873Z,25.91
2017-02-14T01:39:51.430Z,25.99
2017-02-14T01:40:06.028Z,25.93
2017-02-14T01:40:20.618Z,26
2017-02-14T01:40:35.233Z,25.97
2017-02-14T01:40:49.823Z,25.99
2017-02-14T01:41:04.436Z,26
2017-02-14T01:41:19.203Z,25.91
2017-02-14T01:41:33.762Z,25.99
2017-02-14T01:41:48.275Z,25.89
2017-02-14T01:42:02.867Z,25.88
2017-02-14T01:42:17.473Z,25.99
2017-02-14T01:42:32.056Z,25.99
2017-02-14T01:42:46.610Z,26.04
2017-02-14T01:43:01.194Z,25.91
2017-02-14T01:43:15.742Z,25.94
2017-02-14T01:43:30.291Z,25.97
2017-02-14T01:43:44.841Z,25.96
2017-02-14T01:43:59.513Z,25.96
2017-02-14T01:44:14.118Z,25.99
2017-02-14T01:44:28.683Z,25.96
2017-02-14T01:44:43.211Z,26
2017-02-14T01:44:57.786Z,26
2017-02-14T01:45:12.350Z,25.97
2017-02-14T01:45:26.939Z,25.94
2017-02-14T01:45:41.481Z,25.93
2017-02-14T01:45:56.089Z,26
2017-02-14T01:46:10.633Z,26.04
2017-02-14T01:46:25.165Z,25.97
2017-02-14T01:46:39.784Z,25.99
2017-02-14T01:46:54.400Z,25.91
2017-02-14T01:47:08.958Z,25.97
2017-02-14T01:47:23.501Z,25.89
2017-02-14T01:47:38.108Z,25.99
2017-02-14T01:47:52.603Z,25.96
2017-02-14T01:48:07.179Z,25.89
2017-02-14T01:48:21.767Z,25.93
2017-02-14T01:48:36.363Z,25.91
2017-02-14T01:48:50.947Z,25.93
2017-02-14T01:49:05.544Z,25.88
2017-02-14T01:49:20.116Z,25.93
2017-02-14T01:49:34.800Z,25.78
2017-02-14T01:49:49.393Z,25.81
2017-02-14T01:50:03.930Z,25.88
2017-02-14T01:50:18.505Z,25.93
2017-02-14T01:50:33.305Z,25.94
2017-02-14T01:50:47.896Z,25.89
2017-02-14T01:51:02.448Z,25.88
2017-02-14T01:51:17.042Z,25.96
2017-02-14T01:51:31.616Z,25.91
2017-02-14T01:51:46.220Z,25.91
2017-02-14T01:52:00.737Z,25.93
2017-02-14T01:52:15.363Z,25.89
2017-02-14T01:52:29.979Z,25.88
2017-02-14T01:52:44.540Z,25.89
2017-02-14T01:52:59.112Z,25.88
2017-02-14T01:53:13.658Z,25.88
2017-02-14T01:53:28.249Z,25.85
2017-02-14T01:53:42.791Z,25.96
2017-02-14T01:53:57.350Z,25.91
2017-02-14T01:54:11.959Z,25.86
2017-02-14T01:54:26.561Z,25.79
2017-02-14T01:54:41.394Z,25.81
2017-02-14T01:54:55.989Z,25.76
2017-02-14T01:55:10.527Z,25.91
2017-02-14T01:55:25.151Z,25.93
2017-02-14T01:55:39.732Z,25.75
2017-02-14T01:55:54.300Z,25.82
2017-02-14T01:56:08.856Z,25.82
2017-02-14T01:56:23.419Z,25.76
2017-02-14T01:56:38.032Z,25.78
2017-02-14T01:56:52.616Z,25.81
2017-02-14T01:57:07.228Z,25.76
2017-02-14T01:57:21.773Z,25.76
2017-02-14T01:57:36.346Z,25.76
2017-02-14T01:57:50.946Z,25.76
2017-02-14T01:58:05.562Z,25.81
2017-02-14T01:58:20.130Z,25.81
2017-02-14T01:58:34.751Z,25.79
2017-02-14T01:58:49.393Z,25.74
2017-02-14T01:59:04.010Z,25.76
2017-02-14T01:59:18.659Z,25.79
2017-02-14T01:59:33.484Z,25.79
2017-02-14T01:59:48.307Z,25.66
2017-02-14T02:00:02.982Z,25.75
2017-02-14T02:00:17.550Z,25.75
2017-02-14T02:00:32.115Z,25.7
2017-02-14T02:00:46.708Z,25.75
2017-02-14T02:01:01.311Z,25.69
2017-02-14T02:01:15.825Z,25.74
2017-02-14T02:01:30.341Z,25.71
2017-02-14T02:01:44.952Z,25.71
2017-02-14T02:01:59.605Z,25.75
2017-02-14T02:02:14.220Z,25.67
2017-02-14T02:02:28.798Z,25.75
2017-02-14T02:02:43.378Z,25.67
2017-02-14T02:02:58.002Z,25.7
2017-02-14T02:03:12.621Z,25.67
2017-02-14T02:03:27.212Z,25.56
2017-02-14T02:03:41.823Z,25.52
2017-02-14T02:03:56.381Z,25.6
2017-02-14T02:04:10.980Z,25.57
2017-02-14T02:04:25.534Z,25.57
2017-02-14T02:04:40.154Z,25.63
2017-02-14T02:04:54.726Z,25.6
2017-02-14T02:05:09.325Z,25.64
2017-02-14T02:05:23.883Z,25.67
2017-02-14T02:05:38.496Z,25.7
2017-02-14T02:05:53.157Z,25.67
2017-02-14T02:06:07.955Z,25.64
2017-02-14T02:06:22.541Z,25.64
2017-02-14T02:06:37.157Z,25.63
2017-02-14T02:06:51.758Z,25.57
2017-02-14T02:07:06.340Z,25.6
2017-02-14T02:07:20.954Z,25.56
2017-02-14T02:07:35.580Z,25.56
2017-02-14T02:07:50.179Z,25.49
2017-02-14T02:08:04.789Z,25.52
2017-02-14T02:08:19.371Z,25.52
2017-02-14T02:08:33.982Z,25.59
2017-02-14T02:08:48.588Z,25.54
2017-02-14T02:09:03.407Z,25.6
2017-02-14T02:09:17.994Z,25.63
2017-02-14T02:09:32.562Z,25.66
2017-02-14T02:09:47.378Z,25.63
2017-02-14T02:10:02.029Z,25.6
2017-02-14T02:10:16.625Z,25.6
2017-02-14T02:10:31.399Z,25.54
2017-02-14T02:10:45.913Z,25.57
2017-02-14T02:11:00.550Z,25.49
2017-02-14T02:11:15.196Z,25.45
2017-02-14T02:11:29.803Z,25.51
2017-02-14T02:11:44.652Z,25.49
2017-02-14T02:11:59.236Z,25.49
2017-02-14T02:12:13.829Z,25.41
2017-02-14T02:12:28.465Z,25.34
2017-02-14T02:12:43.107Z,25.32
2017-02-14T02:12:57.709Z,25.39
2017-02-14T02:13:12.278Z,25.37
2017-02-14T02:13:26.833Z,25.37
2017-02-14T02:13:41.490Z,25.34
2017-02-14T02:13:56.146Z,25.38
2017-02-14T02:14:10.775Z,25.26
2017-02-14T02:14:25.421Z,25.32
2017-02-14T02:14:40.057Z,25.34
2017-02-14T02:14:54.644Z,25.29
2017-02-14T02:15:09.248Z,25.3
2017-02-14T02:15:23.870Z,25.3
2017-02-14T02:15:38.492Z,25.32
2017-02-14T02:15:53.118Z,25.37
2017-02-14T02:16:07.760Z,25.39
2017-02-14T02:16:22.372Z,25.37
2017-02-14T02:16:36.944Z,25.39
2017-02-14T02:16:51.507Z,25.34
2017-02-14T02:17:06.139Z,25.3
2017-02-14T02:17:20.722Z,25.3
2017-02-14T02:17:35.333Z,25.32
2017-02-14T02:17:49.916Z,25.17
2017-02-14T02:18:04.526Z,25.15
2017-02-14T02:18:19.111Z,25.19
2017-02-14T02:18:33.707Z,25.15
2017-02-14T02:18:48.504Z,25.19
2017-02-14T02:19:03.092Z,25.23
2017-02-14T02:19:17.721Z,25.22
2017-02-14T02:19:32.316Z,25.22
2017-02-14T02:19:46.937Z,25.17
2017-02-14T02:20:01.527Z,25.17
2017-02-14T02:20:16.175Z,25.2
2017-02-14T02:20:30.751Z,25.19
2017-02-14T02:20:45.872Z,25.19
2017-02-14T02:21:00.473Z,25.11
2017-02-14T02:21:15.025Z,25.05
2017-02-14T02:21:29.639Z,25.05
2017-02-14T02:21:44.226Z,25.11
2017-02-14T02:21:58.831Z,25.19
2017-02-14T02:22:13.386Z,25.04
2017-02-14T02:22:27.988Z,25.02
2017-02-14T02:22:42.529Z,25.19
2017-02-14T02:22:57.127Z,25.07
2017-02-14T02:23:11.750Z,25.17
2017-02-14T02:23:26.322Z,25.15
2017-02-14T02:23:40.969Z,25.14
2017-02-14T02:23:55.580Z,25.2
2017-02-14T02:24:10.190Z,25.19
2017-02-14T02:24:24.789Z,25.17
2017-02-14T02:24:39.415Z,25.14
2017-02-14T02:24:54.245Z,25.08
2017-02-14T02:25:08.925Z,25.11
2017-02-14T02:25:23.503Z,25.04
2017-02-14T02:25:38.162Z,25.05
2017-02-14T02:25:52.779Z,25.04
2017-02-14T02:26:07.379Z,25.05
2017-02-14T02:26:22.006Z,25.01
2017-02-14T02:26:36.607Z,24.97
2017-02-14T02:26:51.190Z,24.96
2017-02-14T02:27:05.773Z,24.96
2017-02-14T02:27:20.404Z,24.94
2017-02-14T02:27:34.971Z,24.96
2017-02-14T02:27:49.567Z,24.93
2017-02-14T02:28:04.170Z,24.97
2017-02-14T02:28:18.770Z,24.92
2017-02-14T02:28:33.299Z,24.97
2017-02-14T02:28:47.895Z,24.94
2017-02-14T02:29:02.472Z,24.9
2017-02-14T02:29:17.112Z,24.94
2017-02-14T02:29:31.730Z,24.94
2017-02-14T02:29:46.317Z,25
2017-02-14T02:30:00.914Z,25.02
2017-02-14T02:30:15.517Z,25.01
2017-02-14T02:30:30.132Z,24.96
2017-02-14T02:30:44.751Z,25.01
2017-02-14T02:30:59.400Z,25.04
2017-02-14T02:31:13.967Z,25.08
2017-02-14T02:31:28.601Z,25.04
2017-02-14T02:31:43.205Z,25.12
2017-02-14T02:31:57.779Z,25.04
2017-02-14T02:32:12.404Z,25
2017-02-14T02:32:27.024Z,25.07
2017-02-14T02:32:41.606Z,25.02
2017-02-14T02:32:56.237Z,25.02
2017-02-14T02:33:10.861Z,25.01
2017-02-14T02:33:25.467Z,25.01
2017-02-14T02:33:40.030Z,25.02
2017-02-14T02:33:54.622Z,25.07
2017-02-14T02:34:09.244Z,25.05
2017-02-14T02:34:23.798Z,25.05
2017-02-14T02:34:38.438Z,25
2017-02-14T02:34:53.202Z,24.97
2017-02-14T02:35:07.804Z,24.97
2017-02-14T02:35:22.471Z,24.93
2017-02-14T02:35:37.081Z,24.92
2017-02-14T02:35:51.722Z,24.94
2017-02-14T02:36:06.326Z,24.94
2017-02-14T02:36:20.905Z,24.8
2017-02-14T02:36:35.504Z,24.87
2017-02-14T02:36:50.101Z,24.87
2017-02-14T02:37:04.865Z,24.9
2017-02-14T02:37:19.448Z,24.85
2017-02-14T02:37:34.001Z,24.87
2017-02-14T02:37:48.572Z,24.87
2017-02-14T02:38:03.217Z,24.85
2017-02-14T02:38:17.799Z,24.9
2017-02-14T02:38:32.413Z,24.89
2017-02-14T02:38:46.962Z,24.85
2017-02-14T02:39:01.580Z,24.78
2017-02-14T02:39:16.403Z,24.83
2017-02-14T02:39:30.984Z,24.85
2017-02-14T02:39:45.558Z,24.83
2017-02-14T02:40:00.141Z,24.83
2017-02-14T02:40:14.975Z,24.83
2017-02-14T02:40:29.599Z,24.83
2017-02-14T02:40:44.220Z,24.83
2017-02-14T02:40:58.856Z,24.82
2017-02-14T02:41:13.480Z,24.85
2017-02-14T02:41:28.118Z,24.82
2017-02-14T02:41:42.696Z,24.82
2017-02-14T02:41:57.311Z,24.86
2017-02-14T02:42:11.949Z,24.83
2017-02-14T02:42:26.564Z,24.87
2017-02-14T02:42:41.138Z,24.77
2017-02-14T02:42:55.910Z,24.71
2017-02-14T02:43:10.580Z,24.87
2017-02-14T02:43:25.124Z,24.61
2017-02-14T02:43:39.693Z,24.69
2017-02-14T02:43:54.308Z,24.63
2017-02-14T02:44:08.881Z,24.67
2017-02-14T02:44:23.463Z,24.61
2017-02-14T02:44:37.980Z,24.61
2017-02-14T02:44:52.559Z,24.54
2017-02-14T02:45:07.133Z,24.48
2017-02-14T02:45:21.712Z,24.48
2017-02-14T02:45:36.302Z,24.45
2017-02-14T02:45:50.956Z,24.51
2017-02-14T02:46:05.587Z,24.45
2017-02-14T02:46:20.154Z,24.46
2017-02-14T02:46:34.779Z,24.55
2017-02-14T02:46:49.430Z,24.52
2017-02-14T02:47:04.129Z,24.56
2017-02-14T02:47:18.704Z,24.54
2017-02-14T02:47:33.266Z,24.56
2017-02-14T02:47:48.285Z,24.63
2017-02-14T02:48:02.884Z,24.64
2017-02-14T02:48:17.544Z,24.56
2017-02-14T02:48:32.220Z,24.67
2017-02-14T02:48:46.816Z,24.78
2017-02-14T02:49:01.425Z,24.75
2017-02-14T02:49:16.016Z,24.82
2017-02-14T02:49:30.609Z,24.78
2017-02-14T02:49:45.199Z,24.89
2017-02-14T02:49:59.828Z,24.82
2017-02-14T02:50:14.438Z,24.82
2017-02-14T02:50:29.027Z,24.89
2017-02-14T02:50:43.625Z,24.96
2017-02-14T02:50:58.336Z,24.96
2017-02-14T02:51:12.951Z,24.92
2017-02-14T02:51:27.531Z,24.94
2017-02-14T02:51:42.138Z,25
2017-02-14T02:51:56.745Z,24.94
2017-02-14T02:52:11.278Z,24.92
2017-02-14T02:52:25.903Z,24.97
2017-02-14T02:52:40.565Z,25
2017-02-14T02:52:55.149Z,24.93
2017-02-14T02:53:09.775Z,24.93
2017-02-14T02:53:24.365Z,25.02
2017-02-14T02:53:39.025Z,24.94
2017-02-14T02:53:53.652Z,25.01
2017-02-14T02:54:08.286Z,25.01
2017-02-14T02:54:22.982Z,25.02
2017-02-14T02:54:37.564Z,24.94
2017-02-14T02:54:52.123Z,24.97
2017-02-14T02:55:06.865Z,24.94
2017-02-14T02:55:22.305Z,24.92
2017-02-14T02:55:36.974Z,24.96
2017-02-14T02:55:51.595Z,24.97
2017-02-14T02:56:06.393Z,24.9
2017-02-14T02:56:20.983Z,24.78
2017-02-14T02:56:35.592Z,24.85
2017-02-14T02:56:50.409Z,24.85
2017-02-14T02:57:05.070Z,24.83
2017-02-14T02:57:19.712Z,24.83
2017-02-14T02:57:34.315Z,24.82
2017-02-14T02:57:48.874Z,24.78
2017-02-14T02:58:03.507Z,24.83
2017-02-14T02:58:18.113Z,24.71
2017-02-14T02:58:32.682Z,24.66
2017-02-14T02:58:47.284Z,24.59
2017-02-14T02:59:01.856Z,24.69
2017-02-14T02:59:16.445Z,24.55
2017-02-14T02:59:31.081Z,24.58
2017-02-14T02:59:45.650Z,24.44
2017-02-14T03:00:00.268Z,24.48
2017-02-14T03:00:14.830Z,24.48
2017-02-14T03:00:29.429Z,24.49
2017-02-14T03:00:43.980Z,24.48
2017-02-14T03:00:58.612Z,24.36
2017-02-14T03:01:13.205Z,24.36
2017-02-14T03:01:27.799Z,24.45
2017-02-14T03:01:42.398Z,24.39
2017-02-14T03:01:57.010Z,24.36
2017-02-14T03:02:11.620Z,24.3
2017-02-14T03:02:26.269Z,24.33
2017-02-14T03:02:40.923Z,24.27
2017-02-14T03:02:55.603Z,24.3
2017-02-14T03:03:10.441Z,24.33
2017-02-14T03:03:25.025Z,24.3
2017-02-14T03:03:39.623Z,24.24
2017-02-14T03:03:54.250Z,24.22
2017-02-14T03:04:08.879Z,24.19
2017-02-14T03:04:23.469Z,24.33
2017-02-14T03:04:38.045Z,24.17
2017-02-14T03:04:52.651Z,24.26
2017-02-14T03:05:07.269Z,24.27
2017-02-14T03:05:21.851Z,24.14
2017-02-14T03:05:36.489Z,24.14
2017-02-14T03:05:51.173Z,24.15
2017-02-14T03:06:05.780Z,24.12
2017-02-14T03:06:20.313Z,24.08
2017-02-14T03:06:34.917Z,24.07
2017-02-14T03:06:49.483Z,24.08
2017-02-14T03:07:04.134Z,24.15
2017-02-14T03:07:18.718Z,24.02
2017-02-14T03:07:33.260Z,24.14
2017-02-14T03:07:47.883Z,24
2017-02-14T03:08:02.474Z,24.03
2017-02-14T03:08:17.083Z,24.08
2017-02-14T03:08:31.727Z,24.08
2017-02-14T03:08:46.322Z,24.02
2017-02-14T03:09:00.904Z,24.09